sensor_id;sensor_type;location;lat;lon;timestamp;P1;durP1;ratioP1;P2;durP2;ratioP2
72920;SDS011;61064;51.654;5.476;2024-01-07T00:01:24;20.00;;;9.45;;
72920;SDS011;61064;51.654;5.476;2024-01-07T00:03:50;21.65;;;9.18;;
72920;SDS011;61064;51.654;5.476;2024-01-07T00:06:16;18.20;;;9.10;;
72920;SDS011;61064;51.654;5.476;2024-01-07T00:08:41;20.03;;;8.93;;
72920;SDS011;61064;51.654;5.476;2024-01-07T00:11:07;18.37;;;8.13;;
72920;SDS011;61064;51.654;5.476;2024-01-07T00:13:32;18.53;;;9.30;;
72920;SDS011;61064;51.654;5.476;2024-01-07T00:15:57;18.10;;;9.00;;
72920;SDS011;61064;51.654;5.476;2024-01-07T00:18:22;21.00;;;9.87;;
72920;SDS011;61064;51.654;5.476;2024-01-07T00:20:49;19.55;;;8.90;;
72920;SDS011;61064;51.654;5.476;2024-01-07T00:23:14;21.55;;;10.40;;
72920;SDS011;61064;51.654;5.476;2024-01-07T00:25:40;20.47;;;9.70;;
72920;SDS011;61064;51.654;5.476;2024-01-07T00:28:05;19.17;;;9.00;;
72920;SDS011;61064;51.654;5.476;2024-01-07T00:30:33;19.35;;;9.30;;
72920;SDS011;61064;51.654;5.476;2024-01-07T00:32:58;18.97;;;9.20;;
72920;SDS011;61064;51.654;5.476;2024-01-07T00:35:24;19.93;;;9.30;;
72920;SDS011;61064;51.654;5.476;2024-01-07T00:37:49;21.73;;;9.17;;
72920;SDS011;61064;51.654;5.476;2024-01-07T00:40:14;21.23;;;10.00;;
72920;SDS011;61064;51.654;5.476;2024-01-07T00:42:40;20.43;;;9.30;;
72920;SDS011;61064;51.654;5.476;2024-01-07T00:45:05;18.88;;;9.40;;
72920;SDS011;61064;51.654;5.476;2024-01-07T00:47:31;18.80;;;8.50;;
72920;SDS011;61064;51.654;5.476;2024-01-07T00:49:56;19.63;;;9.20;;
72920;SDS011;61064;51.654;5.476;2024-01-07T00:52:21;19.13;;;9.00;;
72920;SDS011;61064;51.654;5.476;2024-01-07T00:54:49;21.30;;;9.32;;
72920;SDS011;61064;51.654;5.476;2024-01-07T00:57:14;22.30;;;10.13;;
72920;SDS011;61064;51.654;5.476;2024-01-07T00:59:40;21.67;;;9.55;;
72920;SDS011;61064;51.654;5.476;2024-01-07T01:02:05;24.03;;;10.30;;
72920;SDS011;61064;51.654;5.476;2024-01-07T01:04:30;21.47;;;9.40;;
72920;SDS011;61064;51.654;5.476;2024-01-07T01:06:56;22.83;;;10.40;;
72920;SDS011;61064;51.654;5.476;2024-01-07T01:09:21;23.73;;;10.13;;
72920;SDS011;61064;51.654;5.476;2024-01-07T01:11:46;26.33;;;10.27;;
72920;SDS011;61064;51.654;5.476;2024-01-07T01:14:12;25.00;;;9.73;;
72920;SDS011;61064;51.654;5.476;2024-01-07T01:16:37;23.17;;;9.73;;
72920;SDS011;61064;51.654;5.476;2024-01-07T01:19:02;23.97;;;9.93;;
72920;SDS011;61064;51.654;5.476;2024-01-07T01:21:28;24.67;;;10.33;;
72920;SDS011;61064;51.654;5.476;2024-01-07T01:23:53;26.27;;;10.67;;
72920;SDS011;61064;51.654;5.476;2024-01-07T01:26:19;25.87;;;11.60;;
72920;SDS011;61064;51.654;5.476;2024-01-07T01:28:44;26.70;;;11.38;;
72920;SDS011;61064;51.654;5.476;2024-01-07T01:31:12;26.17;;;10.70;;
72920;SDS011;61064;51.654;5.476;2024-01-07T01:33:38;27.92;;;10.93;;
72920;SDS011;61064;51.654;5.476;2024-01-07T01:36:04;29.83;;;11.40;;
72920;SDS011;61064;51.654;5.476;2024-01-07T01:38:31;27.53;;;11.30;;
72920;SDS011;61064;51.654;5.476;2024-01-07T01:40:56;25.75;;;11.77;;
72920;SDS011;61064;51.654;5.476;2024-01-07T01:43:25;29.57;;;12.07;;
72920;SDS011;61064;51.654;5.476;2024-01-07T01:45:54;25.08;;;11.07;;
72920;SDS011;61064;51.654;5.476;2024-01-07T01:48:21;26.45;;;10.82;;
72920;SDS011;61064;51.654;5.476;2024-01-07T01:50:51;28.48;;;11.43;;
72920;SDS011;61064;51.654;5.476;2024-01-07T01:53:19;28.00;;;11.37;;
72920;SDS011;61064;51.654;5.476;2024-01-07T01:55:44;24.45;;;10.20;;
72920;SDS011;61064;51.654;5.476;2024-01-07T01:58:13;28.80;;;11.75;;
72920;SDS011;61064;51.654;5.476;2024-01-07T02:00:43;25.97;;;10.10;;
72920;SDS011;61064;51.654;5.476;2024-01-07T02:03:09;26.55;;;10.45;;
72920;SDS011;61064;51.654;5.476;2024-01-07T02:05:34;24.27;;;10.20;;
72920;SDS011;61064;51.654;5.476;2024-01-07T02:08:00;26.05;;;10.50;;
72920;SDS011;61064;51.654;5.476;2024-01-07T02:10:25;26.10;;;10.77;;
72920;SDS011;61064;51.654;5.476;2024-01-07T02:12:50;26.00;;;11.07;;
72920;SDS011;61064;51.654;5.476;2024-01-07T02:15:16;29.00;;;12.03;;
72920;SDS011;61064;51.654;5.476;2024-01-07T02:17:41;27.73;;;12.70;;
72920;SDS011;61064;51.654;5.476;2024-01-07T02:20:07;28.17;;;11.97;;
72920;SDS011;61064;51.654;5.476;2024-01-07T02:22:32;32.85;;;11.63;;
72920;SDS011;61064;51.654;5.476;2024-01-07T02:24:57;29.83;;;11.80;;
72920;SDS011;61064;51.654;5.476;2024-01-07T02:27:26;33.07;;;13.13;;
72920;SDS011;61064;51.654;5.476;2024-01-07T02:29:51;36.45;;;13.77;;
72920;SDS011;61064;51.654;5.476;2024-01-07T02:32:16;35.67;;;13.30;;
72920;SDS011;61064;51.654;5.476;2024-01-07T02:34:42;36.00;;;13.27;;
72920;SDS011;61064;51.654;5.476;2024-01-07T02:37:12;33.33;;;13.48;;
72920;SDS011;61064;51.654;5.476;2024-01-07T02:39:37;35.13;;;12.93;;
72920;SDS011;61064;51.654;5.476;2024-01-07T02:42:02;34.13;;;13.77;;
72920;SDS011;61064;51.654;5.476;2024-01-07T02:44:28;39.60;;;13.82;;
72920;SDS011;61064;51.654;5.476;2024-01-07T02:46:56;35.47;;;13.73;;
72920;SDS011;61064;51.654;5.476;2024-01-07T02:49:21;41.22;;;14.68;;
72920;SDS011;61064;51.654;5.476;2024-01-07T02:51:47;36.57;;;13.87;;
72920;SDS011;61064;51.654;5.476;2024-01-07T02:54:14;37.80;;;14.68;;
72920;SDS011;61064;51.654;5.476;2024-01-07T02:56:40;35.03;;;13.67;;
72920;SDS011;61064;51.654;5.476;2024-01-07T02:59:05;35.63;;;14.32;;
72920;SDS011;61064;51.654;5.476;2024-01-07T03:01:31;36.40;;;13.53;;
72920;SDS011;61064;51.654;5.476;2024-01-07T03:03:57;36.90;;;14.17;;
72920;SDS011;61064;51.654;5.476;2024-01-07T03:06:22;41.43;;;13.30;;
72920;SDS011;61064;51.654;5.476;2024-01-07T03:08:51;35.90;;;13.47;;
72920;SDS011;61064;51.654;5.476;2024-01-07T03:11:17;32.65;;;12.95;;
72920;SDS011;61064;51.654;5.476;2024-01-07T03:13:42;32.67;;;12.03;;
72920;SDS011;61064;51.654;5.476;2024-01-07T03:16:07;31.90;;;13.27;;
72920;SDS011;61064;51.654;5.476;2024-01-07T03:18:35;33.87;;;13.57;;
72920;SDS011;61064;51.654;5.476;2024-01-07T03:21:00;31.92;;;13.35;;
72920;SDS011;61064;51.654;5.476;2024-01-07T03:23:26;29.73;;;12.40;;
72920;SDS011;61064;51.654;5.476;2024-01-07T03:25:51;33.03;;;12.97;;
72920;SDS011;61064;51.654;5.476;2024-01-07T03:28:17;30.03;;;13.30;;
72920;SDS011;61064;51.654;5.476;2024-01-07T03:30:42;32.63;;;13.13;;
72920;SDS011;61064;51.654;5.476;2024-01-07T03:33:07;32.00;;;13.55;;
72920;SDS011;61064;51.654;5.476;2024-01-07T03:35:33;29.87;;;13.07;;
72920;SDS011;61064;51.654;5.476;2024-01-07T03:37:58;32.93;;;13.17;;
72920;SDS011;61064;51.654;5.476;2024-01-07T03:40:23;32.03;;;13.00;;
72920;SDS011;61064;51.654;5.476;2024-01-07T03:42:48;32.27;;;13.63;;
72920;SDS011;61064;51.654;5.476;2024-01-07T03:45:14;27.97;;;13.43;;
72920;SDS011;61064;51.654;5.476;2024-01-07T03:47:39;31.07;;;12.90;;
72920;SDS011;61064;51.654;5.476;2024-01-07T03:50:05;30.80;;;13.00;;
72920;SDS011;61064;51.654;5.476;2024-01-07T03:52:30;29.85;;;12.50;;
72920;SDS011;61064;51.654;5.476;2024-01-07T03:54:56;32.10;;;12.60;;
72920;SDS011;61064;51.654;5.476;2024-01-07T03:57:21;33.10;;;13.37;;
72920;SDS011;61064;51.654;5.476;2024-01-07T03:59:46;28.80;;;12.40;;
72920;SDS011;61064;51.654;5.476;2024-01-07T04:02:12;26.83;;;11.33;;
72920;SDS011;61064;51.654;5.476;2024-01-07T04:04:41;30.13;;;11.70;;
72920;SDS011;61064;51.654;5.476;2024-01-07T04:07:06;26.70;;;10.50;;
72920;SDS011;61064;51.654;5.476;2024-01-07T04:09:31;32.83;;;12.73;;
72920;SDS011;61064;51.654;5.476;2024-01-07T04:11:57;32.17;;;12.90;;
72920;SDS011;61064;51.654;5.476;2024-01-07T04:14:22;30.57;;;11.60;;
72920;SDS011;61064;51.654;5.476;2024-01-07T04:16:47;31.40;;;12.37;;
72920;SDS011;61064;51.654;5.476;2024-01-07T04:19:12;31.53;;;11.57;;
72920;SDS011;61064;51.654;5.476;2024-01-07T04:21:38;32.03;;;12.20;;
72920;SDS011;61064;51.654;5.476;2024-01-07T04:24:03;29.30;;;12.33;;
72920;SDS011;61064;51.654;5.476;2024-01-07T04:26:29;28.90;;;12.02;;
72920;SDS011;61064;51.654;5.476;2024-01-07T04:28:54;33.00;;;12.77;;
72920;SDS011;61064;51.654;5.476;2024-01-07T04:31:19;29.83;;;10.70;;
72920;SDS011;61064;51.654;5.476;2024-01-07T04:33:45;26.73;;;11.07;;
72920;SDS011;61064;51.654;5.476;2024-01-07T04:36:10;27.90;;;11.40;;
72920;SDS011;61064;51.654;5.476;2024-01-07T04:38:35;25.23;;;10.67;;
72920;SDS011;61064;51.654;5.476;2024-01-07T04:41:01;29.92;;;11.55;;
72920;SDS011;61064;51.654;5.476;2024-01-07T04:43:27;27.50;;;10.87;;
72920;SDS011;61064;51.654;5.476;2024-01-07T04:45:52;29.57;;;11.93;;
72920;SDS011;61064;51.654;5.476;2024-01-07T04:48:20;24.93;;;11.00;;
72920;SDS011;61064;51.654;5.476;2024-01-07T04:50:46;25.75;;;10.43;;
72920;SDS011;61064;51.654;5.476;2024-01-07T04:53:11;26.27;;;10.13;;
72920;SDS011;61064;51.654;5.476;2024-01-07T04:55:36;24.47;;;10.20;;
72920;SDS011;61064;51.654;5.476;2024-01-07T04:58:02;22.47;;;9.23;;
72920;SDS011;61064;51.654;5.476;2024-01-07T05:00:29;22.35;;;9.75;;
72920;SDS011;61064;51.654;5.476;2024-01-07T05:02:54;22.30;;;9.57;;
72920;SDS011;61064;51.654;5.476;2024-01-07T05:05:20;18.93;;;8.80;;
72920;SDS011;61064;51.654;5.476;2024-01-07T05:07:45;19.90;;;8.07;;
72920;SDS011;61064;51.654;5.476;2024-01-07T05:10:10;20.03;;;8.87;;
72920;SDS011;61064;51.654;5.476;2024-01-07T05:12:36;20.83;;;9.10;;
72920;SDS011;61064;51.654;5.476;2024-01-07T05:15:01;19.30;;;8.43;;
72920;SDS011;61064;51.654;5.476;2024-01-07T05:17:28;19.63;;;8.67;;
72920;SDS011;61064;51.654;5.476;2024-01-07T05:19:54;17.73;;;8.07;;
72920;SDS011;61064;51.654;5.476;2024-01-07T05:22:20;18.73;;;9.03;;
72920;SDS011;61064;51.654;5.476;2024-01-07T05:24:46;18.50;;;8.25;;
72920;SDS011;61064;51.654;5.476;2024-01-07T05:27:12;19.33;;;8.60;;
72920;SDS011;61064;51.654;5.476;2024-01-07T05:29:37;21.37;;;8.87;;
72920;SDS011;61064;51.654;5.476;2024-01-07T05:32:02;18.73;;;7.97;;
72920;SDS011;61064;51.654;5.476;2024-01-07T05:34:29;17.23;;;7.88;;
72920;SDS011;61064;51.654;5.476;2024-01-07T05:36:54;17.47;;;8.10;;
72920;SDS011;61064;51.654;5.476;2024-01-07T05:39:19;16.97;;;8.27;;
72920;SDS011;61064;51.654;5.476;2024-01-07T05:41:45;17.13;;;7.90;;
72920;SDS011;61064;51.654;5.476;2024-01-07T05:44:11;17.10;;;7.87;;
72920;SDS011;61064;51.654;5.476;2024-01-07T05:46:40;19.48;;;8.35;;
72920;SDS011;61064;51.654;5.476;2024-01-07T05:49:08;17.88;;;8.60;;
72920;SDS011;61064;51.654;5.476;2024-01-07T05:51:40;18.40;;;8.60;;
72920;SDS011;61064;51.654;5.476;2024-01-07T05:54:05;16.15;;;8.18;;
72920;SDS011;61064;51.654;5.476;2024-01-07T05:56:31;18.10;;;9.20;;
72920;SDS011;61064;51.654;5.476;2024-01-07T05:58:56;18.90;;;9.10;;
72920;SDS011;61064;51.654;5.476;2024-01-07T06:01:21;18.10;;;8.50;;
72920;SDS011;61064;51.654;5.476;2024-01-07T06:03:47;19.03;;;9.40;;
72920;SDS011;61064;51.654;5.476;2024-01-07T06:06:13;19.15;;;9.10;;
72920;SDS011;61064;51.654;5.476;2024-01-07T06:08:43;21.27;;;9.87;;
72920;SDS011;61064;51.654;5.476;2024-01-07T06:11:09;20.92;;;9.63;;
72920;SDS011;61064;51.654;5.476;2024-01-07T06:13:37;21.38;;;10.20;;
72920;SDS011;61064;51.654;5.476;2024-01-07T06:16:02;22.67;;;9.93;;
72920;SDS011;61064;51.654;5.476;2024-01-07T06:18:27;20.40;;;9.97;;
72920;SDS011;61064;51.654;5.476;2024-01-07T06:20:53;21.67;;;9.90;;
72920;SDS011;61064;51.654;5.476;2024-01-07T06:23:18;20.38;;;9.43;;
72920;SDS011;61064;51.654;5.476;2024-01-07T06:25:43;18.90;;;9.70;;
72920;SDS011;61064;51.654;5.476;2024-01-07T06:28:09;21.60;;;10.40;;
72920;SDS011;61064;51.654;5.476;2024-01-07T06:30:37;22.33;;;10.38;;
72920;SDS011;61064;51.654;5.476;2024-01-07T06:33:02;23.23;;;10.23;;
72920;SDS011;61064;51.654;5.476;2024-01-07T06:35:28;21.47;;;9.87;;
72920;SDS011;61064;51.654;5.476;2024-01-07T06:37:53;20.70;;;9.93;;
72920;SDS011;61064;51.654;5.476;2024-01-07T06:40:19;21.25;;;9.98;;
72920;SDS011;61064;51.654;5.476;2024-01-07T06:42:45;19.80;;;10.07;;
72920;SDS011;61064;51.654;5.476;2024-01-07T06:45:10;19.85;;;9.82;;
72920;SDS011;61064;51.654;5.476;2024-01-07T06:47:36;23.63;;;11.23;;
72920;SDS011;61064;51.654;5.476;2024-01-07T06:50:01;21.10;;;10.77;;
72920;SDS011;61064;51.654;5.476;2024-01-07T06:52:26;22.33;;;10.07;;
72920;SDS011;61064;51.654;5.476;2024-01-07T06:54:52;21.90;;;9.80;;
72920;SDS011;61064;51.654;5.476;2024-01-07T06:57:17;19.92;;;9.70;;
72920;SDS011;61064;51.654;5.476;2024-01-07T06:59:50;20.57;;;9.80;;
72920;SDS011;61064;51.654;5.476;2024-01-07T07:02:15;17.95;;;8.90;;
72920;SDS011;61064;51.654;5.476;2024-01-07T07:04:40;19.20;;;9.80;;
72920;SDS011;61064;51.654;5.476;2024-01-07T07:07:06;19.67;;;9.43;;
72920;SDS011;61064;51.654;5.476;2024-01-07T07:09:31;19.67;;;9.47;;
72920;SDS011;61064;51.654;5.476;2024-01-07T07:11:56;20.00;;;9.60;;
72920;SDS011;61064;51.654;5.476;2024-01-07T07:14:22;19.43;;;9.47;;
72920;SDS011;61064;51.654;5.476;2024-01-07T07:16:47;18.10;;;9.33;;
72920;SDS011;61064;51.654;5.476;2024-01-07T07:19:12;18.33;;;9.30;;
72920;SDS011;61064;51.654;5.476;2024-01-07T07:21:40;19.38;;;9.43;;
72920;SDS011;61064;51.654;5.476;2024-01-07T07:24:06;19.33;;;9.18;;
72920;SDS011;61064;51.654;5.476;2024-01-07T07:26:31;17.53;;;8.97;;
72920;SDS011;61064;51.654;5.476;2024-01-07T07:28:57;18.50;;;8.57;;
72920;SDS011;61064;51.654;5.476;2024-01-07T07:31:22;19.33;;;9.00;;
72920;SDS011;61064;51.654;5.476;2024-01-07T07:33:48;19.88;;;9.82;;
72920;SDS011;61064;51.654;5.476;2024-01-07T07:36:14;18.90;;;9.70;;
72920;SDS011;61064;51.654;5.476;2024-01-07T07:38:40;16.55;;;8.73;;
72920;SDS011;61064;51.654;5.476;2024-01-07T07:41:05;17.45;;;9.23;;
72920;SDS011;61064;51.654;5.476;2024-01-07T07:43:30;14.73;;;7.73;;
72920;SDS011;61064;51.654;5.476;2024-01-07T07:45:56;18.27;;;8.70;;
72920;SDS011;61064;51.654;5.476;2024-01-07T07:48:21;17.53;;;8.27;;
72920;SDS011;61064;51.654;5.476;2024-01-07T07:50:46;18.70;;;8.63;;
72920;SDS011;61064;51.654;5.476;2024-01-07T07:53:13;15.73;;;8.00;;
72920;SDS011;61064;51.654;5.476;2024-01-07T07:55:38;16.83;;;8.17;;
72920;SDS011;61064;51.654;5.476;2024-01-07T07:58:03;18.48;;;8.52;;
72920;SDS011;61064;51.654;5.476;2024-01-07T08:00:29;17.43;;;7.57;;
72920;SDS011;61064;51.654;5.476;2024-01-07T08:02:54;17.83;;;9.37;;
72920;SDS011;61064;51.654;5.476;2024-01-07T08:05:19;16.50;;;7.77;;
72920;SDS011;61064;51.654;5.476;2024-01-07T08:07:47;15.50;;;7.88;;
72920;SDS011;61064;51.654;5.476;2024-01-07T08:10:13;19.03;;;8.67;;
72920;SDS011;61064;51.654;5.476;2024-01-07T08:12:38;15.43;;;7.67;;
72920;SDS011;61064;51.654;5.476;2024-01-07T08:15:04;15.40;;;7.20;;
72920;SDS011;61064;51.654;5.476;2024-01-07T08:17:30;16.30;;;7.47;;
72920;SDS011;61064;51.654;5.476;2024-01-07T08:19:55;15.70;;;6.80;;
72920;SDS011;61064;51.654;5.476;2024-01-07T08:22:20;14.77;;;7.40;;
72920;SDS011;61064;51.654;5.476;2024-01-07T08:24:46;17.70;;;7.43;;
72920;SDS011;61064;51.654;5.476;2024-01-07T08:27:11;17.70;;;8.00;;
72920;SDS011;61064;51.654;5.476;2024-01-07T08:29:36;15.03;;;7.00;;
72920;SDS011;61064;51.654;5.476;2024-01-07T08:32:02;13.83;;;7.57;;
72920;SDS011;61064;51.654;5.476;2024-01-07T08:34:27;14.50;;;6.73;;
72920;SDS011;61064;51.654;5.476;2024-01-07T08:36:52;14.40;;;7.00;;
72920;SDS011;61064;51.654;5.476;2024-01-07T08:39:21;14.00;;;6.97;;
72920;SDS011;61064;51.654;5.476;2024-01-07T08:41:46;14.73;;;7.80;;
72920;SDS011;61064;51.654;5.476;2024-01-07T08:44:11;13.33;;;6.60;;
72920;SDS011;61064;51.654;5.476;2024-01-07T08:46:37;13.50;;;6.65;;
72920;SDS011;61064;51.654;5.476;2024-01-07T08:49:02;13.97;;;6.20;;
72920;SDS011;61064;51.654;5.476;2024-01-07T08:51:28;14.07;;;7.10;;
72920;SDS011;61064;51.654;5.476;2024-01-07T08:53:54;12.50;;;6.07;;
72920;SDS011;61064;51.654;5.476;2024-01-07T08:56:20;13.05;;;6.07;;
72920;SDS011;61064;51.654;5.476;2024-01-07T08:58:45;12.87;;;6.87;;
72920;SDS011;61064;51.654;5.476;2024-01-07T09:01:11;12.00;;;5.77;;
72920;SDS011;61064;51.654;5.476;2024-01-07T09:03:36;14.23;;;5.90;;
72920;SDS011;61064;51.654;5.476;2024-01-07T09:06:01;12.80;;;5.60;;
72920;SDS011;61064;51.654;5.476;2024-01-07T09:08:27;11.77;;;5.63;;
72920;SDS011;61064;51.654;5.476;2024-01-07T09:10:56;11.57;;;5.72;;
72920;SDS011;61064;51.654;5.476;2024-01-07T09:13:21;11.90;;;6.03;;
72920;SDS011;61064;51.654;5.476;2024-01-07T09:15:46;12.23;;;5.78;;
72920;SDS011;61064;51.654;5.476;2024-01-07T09:18:12;13.07;;;5.80;;
72920;SDS011;61064;51.654;5.476;2024-01-07T09:20:37;12.03;;;5.93;;
72920;SDS011;61064;51.654;5.476;2024-01-07T09:23:02;11.27;;;5.57;;
72920;SDS011;61064;51.654;5.476;2024-01-07T09:25:28;12.17;;;5.90;;
72920;SDS011;61064;51.654;5.476;2024-01-07T09:27:57;13.98;;;5.78;;
72920;SDS011;61064;51.654;5.476;2024-01-07T09:30:25;13.75;;;6.25;;
72920;SDS011;61064;51.654;5.476;2024-01-07T09:32:50;11.37;;;5.87;;
72920;SDS011;61064;51.654;5.476;2024-01-07T09:35:15;10.83;;;5.73;;
72920;SDS011;61064;51.654;5.476;2024-01-07T09:37:41;12.60;;;6.00;;
72920;SDS011;61064;51.654;5.476;2024-01-07T09:40:07;11.70;;;5.00;;
72920;SDS011;61064;51.654;5.476;2024-01-07T09:42:33;12.80;;;5.70;;
72920;SDS011;61064;51.654;5.476;2024-01-07T09:45:02;12.03;;;5.13;;
72920;SDS011;61064;51.654;5.476;2024-01-07T09:47:31;11.00;;;5.60;;
72920;SDS011;61064;51.654;5.476;2024-01-07T09:49:57;10.90;;;5.00;;
72920;SDS011;61064;51.654;5.476;2024-01-07T09:52:22;12.60;;;5.67;;
72920;SDS011;61064;51.654;5.476;2024-01-07T09:54:51;12.00;;;5.57;;
72920;SDS011;61064;51.654;5.476;2024-01-07T09:57:23;11.63;;;5.30;;
72920;SDS011;61064;51.654;5.476;2024-01-07T09:59:48;11.73;;;5.23;;
72920;SDS011;61064;51.654;5.476;2024-01-07T10:02:14;12.30;;;5.30;;
72920;SDS011;61064;51.654;5.476;2024-01-07T10:04:40;12.02;;;5.40;;
72920;SDS011;61064;51.654;5.476;2024-01-07T10:07:06;11.97;;;5.77;;
72920;SDS011;61064;51.654;5.476;2024-01-07T10:09:32;11.63;;;5.80;;
72920;SDS011;61064;51.654;5.476;2024-01-07T10:11:58;11.40;;;5.03;;
72920;SDS011;61064;51.654;5.476;2024-01-07T10:14:24;12.27;;;5.80;;
72920;SDS011;61064;51.654;5.476;2024-01-07T10:16:51;11.45;;;5.60;;
72920;SDS011;61064;51.654;5.476;2024-01-07T10:19:22;10.88;;;5.15;;
72920;SDS011;61064;51.654;5.476;2024-01-07T10:22:09;11.30;;;5.60;;
72920;SDS011;61064;51.654;5.476;2024-01-07T10:24:40;12.88;;;6.03;;
72920;SDS011;61064;51.654;5.476;2024-01-07T10:27:07;12.63;;;6.35;;
72920;SDS011;61064;51.654;5.476;2024-01-07T10:29:36;13.30;;;6.10;;
72920;SDS011;61064;51.654;5.476;2024-01-07T10:32:02;12.70;;;6.03;;
72920;SDS011;61064;51.654;5.476;2024-01-07T10:34:33;14.07;;;5.72;;
72920;SDS011;61064;51.654;5.476;2024-01-07T10:37:00;13.02;;;6.10;;
72920;SDS011;61064;51.654;5.476;2024-01-07T10:39:26;13.98;;;5.95;;
72920;SDS011;61064;51.654;5.476;2024-01-07T10:41:52;12.95;;;6.35;;
72920;SDS011;61064;51.654;5.476;2024-01-07T10:44:23;12.25;;;6.05;;
72920;SDS011;61064;51.654;5.476;2024-01-07T10:46:55;12.63;;;6.35;;
72920;SDS011;61064;51.654;5.476;2024-01-07T10:49:21;12.40;;;6.00;;
72920;SDS011;61064;51.654;5.476;2024-01-07T10:52:02;13.05;;;5.88;;
72920;SDS011;61064;51.654;5.476;2024-01-07T10:54:28;12.80;;;6.10;;
72920;SDS011;61064;51.654;5.476;2024-01-07T10:56:56;12.27;;;5.63;;
72920;SDS011;61064;51.654;5.476;2024-01-07T10:59:27;13.45;;;5.97;;
72920;SDS011;61064;51.654;5.476;2024-01-07T11:01:53;12.13;;;5.63;;
72920;SDS011;61064;51.654;5.476;2024-01-07T11:04:42;17.13;;;8.32;;
72920;SDS011;61064;51.654;5.476;2024-01-07T11:09:56;15.70;;;5.63;;
72920;SDS011;61064;51.654;5.476;2024-01-07T11:12:31;14.80;;;6.13;;
72920;SDS011;61064;51.654;5.476;2024-01-07T11:14:57;11.55;;;5.72;;
72920;SDS011;61064;51.654;5.476;2024-01-07T11:17:39;12.38;;;6.05;;
72920;SDS011;61064;51.654;5.476;2024-01-07T11:20:21;13.25;;;5.57;;
72920;SDS011;61064;51.654;5.476;2024-01-07T11:22:47;12.30;;;5.80;;
72920;SDS011;61064;51.654;5.476;2024-01-07T11:25:31;13.20;;;5.47;;
72920;SDS011;61064;51.654;5.476;2024-01-07T11:27:58;13.00;;;6.10;;
72920;SDS011;61064;51.654;5.476;2024-01-07T11:30:25;12.80;;;5.70;;
72920;SDS011;61064;51.654;5.476;2024-01-07T11:32:58;14.07;;;6.50;;
72920;SDS011;61064;51.654;5.476;2024-01-07T11:36:07;12.80;;;7.00;;
72920;SDS011;61064;51.654;5.476;2024-01-07T11:38:21;13.60;;;6.47;;
72920;SDS011;61064;51.654;5.476;2024-01-07T11:40:50;12.13;;;5.80;;
72920;SDS011;61064;51.654;5.476;2024-01-07T11:43:19;13.30;;;5.53;;
72920;SDS011;61064;51.654;5.476;2024-01-07T11:45:45;11.52;;;5.57;;
72920;SDS011;61064;51.654;5.476;2024-01-07T11:48:19;10.88;;;5.22;;
72920;SDS011;61064;51.654;5.476;2024-01-07T11:50:45;9.93;;;4.73;;
72920;SDS011;61064;51.654;5.476;2024-01-07T11:53:13;13.07;;;5.20;;
72920;SDS011;61064;51.654;5.476;2024-01-07T11:55:39;9.45;;;4.63;;
72920;SDS011;61064;51.654;5.476;2024-01-07T11:58:04;10.53;;;4.67;;
72920;SDS011;61064;51.654;5.476;2024-01-07T12:00:32;10.18;;;4.97;;
72920;SDS011;61064;51.654;5.476;2024-01-07T12:03:02;13.02;;;5.30;;
72920;SDS011;61064;51.654;5.476;2024-01-07T12:05:28;9.95;;;4.18;;
72920;SDS011;61064;51.654;5.476;2024-01-07T12:07:55;10.53;;;4.70;;
72920;SDS011;61064;51.654;5.476;2024-01-07T12:10:25;10.00;;;4.20;;
72920;SDS011;61064;51.654;5.476;2024-01-07T12:12:50;9.60;;;4.40;;
72920;SDS011;61064;51.654;5.476;2024-01-07T12:15:17;9.35;;;4.20;;
72920;SDS011;61064;51.654;5.476;2024-01-07T12:17:47;10.02;;;4.32;;
72920;SDS011;61064;51.654;5.476;2024-01-07T12:20:23;9.25;;;4.28;;
72920;SDS011;61064;51.654;5.476;2024-01-07T12:22:49;9.70;;;4.30;;
72920;SDS011;61064;51.654;5.476;2024-01-07T12:25:20;8.63;;;3.73;;
72920;SDS011;61064;51.654;5.476;2024-01-07T12:27:47;9.95;;;4.53;;
72920;SDS011;61064;51.654;5.476;2024-01-07T12:30:17;8.57;;;3.80;;
72920;SDS011;61064;51.654;5.476;2024-01-07T12:32:43;7.75;;;3.72;;
72920;SDS011;61064;51.654;5.476;2024-01-07T12:35:09;8.10;;;3.60;;
72920;SDS011;61064;51.654;5.476;2024-01-07T12:37:37;8.33;;;3.83;;
72920;SDS011;61064;51.654;5.476;2024-01-07T12:40:02;8.02;;;3.58;;
72920;SDS011;61064;51.654;5.476;2024-01-07T12:42:29;8.65;;;3.40;;
72920;SDS011;61064;51.654;5.476;2024-01-07T12:44:57;7.65;;;3.40;;
72920;SDS011;61064;51.654;5.476;2024-01-07T12:47:22;8.90;;;3.07;;
72920;SDS011;61064;51.654;5.476;2024-01-07T12:49:48;6.90;;;2.40;;
72920;SDS011;61064;51.654;5.476;2024-01-07T12:52:14;6.85;;;2.20;;
72920;SDS011;61064;51.654;5.476;2024-01-07T12:54:39;7.37;;;2.63;;
72920;SDS011;61064;51.654;5.476;2024-01-07T12:57:04;6.03;;;1.90;;
72920;SDS011;61064;51.654;5.476;2024-01-07T12:59:30;6.77;;;1.90;;
72920;SDS011;61064;51.654;5.476;2024-01-07T13:01:56;7.68;;;1.98;;
72920;SDS011;61064;51.654;5.476;2024-01-07T13:04:22;10.03;;;2.13;;
72920;SDS011;61064;51.654;5.476;2024-01-07T13:06:47;6.38;;;2.45;;
72920;SDS011;61064;51.654;5.476;2024-01-07T13:09:13;5.83;;;1.70;;
72920;SDS011;61064;51.654;5.476;2024-01-07T13:11:38;5.93;;;1.77;;
72920;SDS011;61064;51.654;5.476;2024-01-07T13:14:04;6.60;;;1.63;;
72920;SDS011;61064;51.654;5.476;2024-01-07T13:16:29;6.17;;;1.87;;
72920;SDS011;61064;51.654;5.476;2024-01-07T13:18:55;5.70;;;1.70;;
72920;SDS011;61064;51.654;5.476;2024-01-07T13:21:20;6.45;;;1.77;;
72920;SDS011;61064;51.654;5.476;2024-01-07T13:23:46;6.83;;;1.80;;
72920;SDS011;61064;51.654;5.476;2024-01-07T13:26:13;4.90;;;1.20;;
72920;SDS011;61064;51.654;5.476;2024-01-07T13:28:39;5.70;;;1.65;;
72920;SDS011;61064;51.654;5.476;2024-01-07T13:31:04;7.77;;;1.70;;
72920;SDS011;61064;51.654;5.476;2024-01-07T13:33:31;5.35;;;1.40;;
72920;SDS011;61064;51.654;5.476;2024-01-07T13:35:57;7.97;;;2.30;;
72920;SDS011;61064;51.654;5.476;2024-01-07T13:38:22;6.22;;;1.58;;
72920;SDS011;61064;51.654;5.476;2024-01-07T13:40:48;4.80;;;1.87;;
72920;SDS011;61064;51.654;5.476;2024-01-07T13:43:13;4.67;;;1.33;;
72920;SDS011;61064;51.654;5.476;2024-01-07T13:45:38;5.50;;;1.40;;
72920;SDS011;61064;51.654;5.476;2024-01-07T13:48:04;6.13;;;1.40;;
72920;SDS011;61064;51.654;5.476;2024-01-07T13:50:31;5.68;;;1.88;;
72920;SDS011;61064;51.654;5.476;2024-01-07T13:52:57;5.47;;;1.60;;
72920;SDS011;61064;51.654;5.476;2024-01-07T13:55:22;6.47;;;1.60;;
72920;SDS011;61064;51.654;5.476;2024-01-07T13:57:48;6.47;;;1.80;;
72920;SDS011;61064;51.654;5.476;2024-01-07T14:00:13;5.87;;;1.70;;
72920;SDS011;61064;51.654;5.476;2024-01-07T14:02:43;5.57;;;1.40;;
72920;SDS011;61064;51.654;5.476;2024-01-07T14:05:10;5.65;;;1.50;;
72920;SDS011;61064;51.654;5.476;2024-01-07T14:07:36;6.22;;;1.70;;
72920;SDS011;61064;51.654;5.476;2024-01-07T14:10:02;5.83;;;1.53;;
72920;SDS011;61064;51.654;5.476;2024-01-07T14:12:30;5.50;;;1.45;;
72920;SDS011;61064;51.654;5.476;2024-01-07T14:14:56;7.03;;;2.10;;
72920;SDS011;61064;51.654;5.476;2024-01-07T14:17:21;5.50;;;1.77;;
72920;SDS011;61064;51.654;5.476;2024-01-07T14:19:47;6.47;;;1.73;;
72920;SDS011;61064;51.654;5.476;2024-01-07T14:22:13;5.43;;;1.60;;
72920;SDS011;61064;51.654;5.476;2024-01-07T14:24:38;6.00;;;1.70;;
72920;SDS011;61064;51.654;5.476;2024-01-07T14:27:04;5.27;;;1.50;;
72920;SDS011;61064;51.654;5.476;2024-01-07T14:29:29;5.95;;;1.40;;
72920;SDS011;61064;51.654;5.476;2024-01-07T14:31:54;5.17;;;1.63;;